sensor_id;sensor_type;location;lat;lon;timestamp;P1;durP1;ratioP1;P2;durP2;ratioP2
74957;SDS011;63741;42.624;26.276;2023-05-16T00:00:37;9.48;;;5.10;;
74957;SDS011;63741;42.624;26.276;2023-05-16T00:03:04;9.02;;;5.00;;
74957;SDS011;63741;42.624;26.276;2023-05-16T00:05:32;7.63;;;5.20;;
74957;SDS011;63741;42.624;26.276;2023-05-16T00:07:58;8.20;;;5.05;;
74957;SDS011;63741;42.624;26.276;2023-05-16T00:10:25;6.25;;;4.72;;
74957;SDS011;63741;42.624;26.276;2023-05-16T00:12:52;7.93;;;5.35;;
74957;SDS011;63741;42.624;26.276;2023-05-16T00:15:20;8.07;;;5.10;;
74957;SDS011;63741;42.624;26.276;2023-05-16T00:17:48;6.50;;;4.65;;
74957;SDS011;63741;42.624;26.276;2023-05-16T00:20:15;9.02;;;5.35;;
74957;SDS011;63741;42.624;26.276;2023-05-16T00:22:48;9.40;;;5.15;;
74957;SDS011;63741;42.624;26.276;2023-05-16T00:25:16;11.30;;;5.72;;
74957;SDS011;63741;42.624;26.276;2023-05-16T00:27:43;9.70;;;5.95;;
74957;SDS011;63741;42.624;26.276;2023-05-16T00:30:10;9.88;;;5.50;;
74957;SDS011;63741;42.624;26.276;2023-05-16T00:32:37;7.38;;;5.07;;
74957;SDS011;63741;42.624;26.276;2023-05-16T00:35:06;7.20;;;5.18;;
74957;SDS011;63741;42.624;26.276;2023-05-16T00:37:36;11.38;;;5.30;;
74957;SDS011;63741;42.624;26.276;2023-05-16T00:40:04;8.25;;;4.97;;
74957;SDS011;63741;42.624;26.276;2023-05-16T00:42:31;7.30;;;5.47;;
74957;SDS011;63741;42.624;26.276;2023-05-16T00:44:59;9.52;;;5.38;;
74957;SDS011;63741;42.624;26.276;2023-05-16T00:47:27;8.02;;;5.30;;
74957;SDS011;63741;42.624;26.276;2023-05-16T00:49:54;8.05;;;5.43;;
74957;SDS011;63741;42.624;26.276;2023-05-16T00:52:21;7.90;;;5.22;;
74957;SDS011;63741;42.624;26.276;2023-05-16T00:54:49;7.80;;;5.32;;
74957;SDS011;63741;42.624;26.276;2023-05-16T00:57:17;7.30;;;5.03;;
74957;SDS011;63741;42.624;26.276;2023-05-16T00:59:47;7.97;;;4.97;;
74957;SDS011;63741;42.624;26.276;2023-05-16T01:02:16;6.13;;;4.72;;
74957;SDS011;63741;42.624;26.276;2023-05-16T01:04:43;8.13;;;5.07;;
74957;SDS011;63741;42.624;26.276;2023-05-16T01:07:13;10.57;;;5.00;;
74957;SDS011;63741;42.624;26.276;2023-05-16T01:09:40;10.63;;;5.50;;
74957;SDS011;63741;42.624;26.276;2023-05-16T01:12:14;7.15;;;5.15;;
74957;SDS011;63741;42.624;26.276;2023-05-16T01:15:06;12.10;;;5.03;;
74957;SDS011;63741;42.624;26.276;2023-05-16T01:20:29;8.55;;;5.35;;
74957;SDS011;63741;42.624;26.276;2023-05-16T01:26:26;7.75;;;5.28;;
74957;SDS011;63741;42.624;26.276;2023-05-16T01:28:54;7.35;;;5.45;;
74957;SDS011;63741;42.624;26.276;2023-05-16T01:31:21;7.75;;;5.18;;
74957;SDS011;63741;42.624;26.276;2023-05-16T01:33:49;9.10;;;5.05;;
74957;SDS011;63741;42.624;26.276;2023-05-16T01:36:33;7.78;;;5.55;;
74957;SDS011;63741;42.624;26.276;2023-05-16T01:44:19;7.68;;;5.47;;
74957;SDS011;63741;42.624;26.276;2023-05-16T01:46:52;11.85;;;4.95;;
74957;SDS011;63741;42.624;26.276;2023-05-16T01:49:25;8.48;;;5.20;;
74957;SDS011;63741;42.624;26.276;2023-05-16T01:52:01;8.10;;;5.22;;
74957;SDS011;63741;42.624;26.276;2023-05-16T01:54:39;8.38;;;5.07;;
74957;SDS011;63741;42.624;26.276;2023-05-16T01:59:38;8.02;;;5.45;;
74957;SDS011;63741;42.624;26.276;2023-05-16T02:02:08;8.85;;;5.15;;
74957;SDS011;63741;42.624;26.276;2023-05-16T02:04:36;8.13;;;5.50;;
74957;SDS011;63741;42.624;26.276;2023-05-16T02:07:04;8.70;;;6.18;;
74957;SDS011;63741;42.624;26.276;2023-05-16T02:09:31;10.57;;;5.68;;
74957;SDS011;63741;42.624;26.276;2023-05-16T02:11:58;6.90;;;5.57;;
74957;SDS011;63741;42.624;26.276;2023-05-16T02:14:26;7.05;;;5.72;;
74957;SDS011;63741;42.624;26.276;2023-05-16T02:16:52;7.95;;;5.68;;
74957;SDS011;63741;42.624;26.276;2023-05-16T02:19:20;8.85;;;5.47;;
74957;SDS011;63741;42.624;26.276;2023-05-16T02:21:47;8.05;;;5.28;;
74957;SDS011;63741;42.624;26.276;2023-05-16T02:24:14;7.88;;;5.30;;
74957;SDS011;63741;42.624;26.276;2023-05-16T02:26:41;7.53;;;5.47;;
74957;SDS011;63741;42.624;26.276;2023-05-16T02:29:08;8.73;;;5.20;;
74957;SDS011;63741;42.624;26.276;2023-05-16T02:31:35;7.03;;;5.28;;
74957;SDS011;63741;42.624;26.276;2023-05-16T02:34:02;7.72;;;5.38;;
74957;SDS011;63741;42.624;26.276;2023-05-16T02:36:29;11.13;;;5.68;;
74957;SDS011;63741;42.624;26.276;2023-05-16T02:38:56;16.80;;;5.68;;
74957;SDS011;63741;42.624;26.276;2023-05-16T02:41:23;17.95;;;6.00;;
74957;SDS011;63741;42.624;26.276;2023-05-16T02:43:50;9.38;;;5.70;;
74957;SDS011;63741;42.624;26.276;2023-05-16T02:48:48;16.25;;;5.90;;
74957;SDS011;63741;42.624;26.276;2023-05-16T02:51:16;11.50;;;5.82;;
74957;SDS011;63741;42.624;26.276;2023-05-16T02:53:44;12.23;;;5.72;;
74957;SDS011;63741;42.624;26.276;2023-05-16T02:56:11;15.52;;;6.55;;
74957;SDS011;63741;42.624;26.276;2023-05-16T02:58:38;18.13;;;6.40;;
74957;SDS011;63741;42.624;26.276;2023-05-16T03:01:06;13.75;;;5.65;;
74957;SDS011;63741;42.624;26.276;2023-05-16T03:03:33;16.48;;;6.32;;
74957;SDS011;63741;42.624;26.276;2023-05-16T03:06:02;18.02;;;6.80;;
74957;SDS011;63741;42.624;26.276;2023-05-16T03:08:31;15.60;;;6.30;;
74957;SDS011;63741;42.624;26.276;2023-05-16T03:10:58;13.57;;;5.95;;
74957;SDS011;63741;42.624;26.276;2023-05-16T03:13:25;17.55;;;7.05;;
74957;SDS011;63741;42.624;26.276;2023-05-16T03:15:52;9.10;;;5.93;;
74957;SDS011;63741;42.624;26.276;2023-05-16T03:18:19;10.80;;;6.20;;
74957;SDS011;63741;42.624;26.276;2023-05-16T03:20:46;10.93;;;5.88;;
74957;SDS011;63741;42.624;26.276;2023-05-16T03:23:14;9.20;;;5.90;;
74957;SDS011;63741;42.624;26.276;2023-05-16T03:25:41;16.65;;;6.10;;
74957;SDS011;63741;42.624;26.276;2023-05-16T03:28:08;11.73;;;5.93;;
74957;SDS011;63741;42.624;26.276;2023-05-16T03:30:35;11.20;;;6.22;;
74957;SDS011;63741;42.624;26.276;2023-05-16T03:33:02;18.17;;;6.20;;
74957;SDS011;63741;42.624;26.276;2023-05-16T03:35:30;12.50;;;5.95;;
74957;SDS011;63741;42.624;26.276;2023-05-16T03:37:57;9.40;;;5.65;;
74957;SDS011;63741;42.624;26.276;2023-05-16T03:40:24;12.73;;;5.72;;
74957;SDS011;63741;42.624;26.276;2023-05-16T03:42:51;12.80;;;6.00;;
74957;SDS011;63741;42.624;26.276;2023-05-16T03:45:18;10.88;;;5.82;;
74957;SDS011;63741;42.624;26.276;2023-05-16T03:47:45;11.32;;;6.25;;
74957;SDS011;63741;42.624;26.276;2023-05-16T03:50:14;17.35;;;6.60;;
74957;SDS011;63741;42.624;26.276;2023-05-16T03:52:41;28.75;;;7.43;;
74957;SDS011;63741;42.624;26.276;2023-05-16T03:55:09;20.98;;;6.50;;
74957;SDS011;63741;42.624;26.276;2023-05-16T03:57:36;17.55;;;6.72;;
74957;SDS011;63741;42.624;26.276;2023-05-16T04:00:04;12.10;;;6.50;;
74957;SDS011;63741;42.624;26.276;2023-05-16T04:02:42;45.15;;;8.25;;
74957;SDS011;63741;42.624;26.276;2023-05-16T04:05:10;22.95;;;7.03;;
74957;SDS011;63741;42.624;26.276;2023-05-16T04:07:37;31.52;;;7.43;;
74957;SDS011;63741;42.624;26.276;2023-05-16T04:10:04;20.33;;;7.38;;
74957;SDS011;63741;42.624;26.276;2023-05-16T04:12:31;10.88;;;6.47;;
74957;SDS011;63741;42.624;26.276;2023-05-16T04:14:58;15.15;;;6.85;;
74957;SDS011;63741;42.624;26.276;2023-05-16T04:17:25;18.92;;;7.20;;
74957;SDS011;63741;42.624;26.276;2023-05-16T04:19:52;13.80;;;7.18;;
74957;SDS011;63741;42.624;26.276;2023-05-16T04:22:22;11.85;;;7.00;;
74957;SDS011;63741;42.624;26.276;2023-05-16T04:24:49;12.27;;;7.15;;
74957;SDS011;63741;42.624;26.276;2023-05-16T04:27:16;18.88;;;7.05;;
74957;SDS011;63741;42.624;26.276;2023-05-16T04:29:43;22.40;;;6.72;;
74957;SDS011;63741;42.624;26.276;2023-05-16T04:32:10;14.27;;;6.88;;
74957;SDS011;63741;42.624;26.276;2023-05-16T04:34:37;14.63;;;7.28;;
74957;SDS011;63741;42.624;26.276;2023-05-16T04:37:06;18.95;;;6.93;;
74957;SDS011;63741;42.624;26.276;2023-05-16T04:39:34;44.50;;;8.13;;
74957;SDS011;63741;42.624;26.276;2023-05-16T04:42:02;23.52;;;7.25;;
74957;SDS011;63741;42.624;26.276;2023-05-16T04:44:29;23.83;;;6.95;;
74957;SDS011;63741;42.624;26.276;2023-05-16T04:46:57;16.38;;;7.40;;
74957;SDS011;63741;42.624;26.276;2023-05-16T04:49:25;11.35;;;6.78;;
74957;SDS011;63741;42.624;26.276;2023-05-16T04:51:52;14.25;;;6.97;;
74957;SDS011;63741;42.624;26.276;2023-05-16T04:54:19;9.82;;;6.65;;
74957;SDS011;63741;42.624;26.276;2023-05-16T04:56:46;9.85;;;6.32;;
74957;SDS011;63741;42.624;26.276;2023-05-16T04:59:13;11.77;;;6.35;;
74957;SDS011;63741;42.624;26.276;2023-05-16T05:01:40;10.88;;;6.82;;
74957;SDS011;63741;42.624;26.276;2023-05-16T05:04:07;10.80;;;6.38;;
74957;SDS011;63741;42.624;26.276;2023-05-16T05:06:34;11.05;;;7.05;;
74957;SDS011;63741;42.624;26.276;2023-05-16T05:09:01;34.08;;;7.90;;
74957;SDS011;63741;42.624;26.276;2023-05-16T05:11:28;18.42;;;7.72;;
74957;SDS011;63741;42.624;26.276;2023-05-16T05:13:54;9.82;;;6.90;;
74957;SDS011;63741;42.624;26.276;2023-05-16T05:16:22;9.65;;;6.47;;
74957;SDS011;63741;42.624;26.276;2023-05-16T05:18:48;9.88;;;6.55;;
74957;SDS011;63741;42.624;26.276;2023-05-16T05:21:16;15.02;;;6.72;;
74957;SDS011;63741;42.624;26.276;2023-05-16T05:23:43;11.32;;;6.70;;
74957;SDS011;63741;42.624;26.276;2023-05-16T05:26:11;21.88;;;6.68;;
74957;SDS011;63741;42.624;26.276;2023-05-16T05:28:38;11.35;;;5.80;;
74957;SDS011;63741;42.624;26.276;2023-05-16T05:31:08;13.70;;;6.55;;
74957;SDS011;63741;42.624;26.276;2023-05-16T05:33:35;15.00;;;7.00;;
74957;SDS011;63741;42.624;26.276;2023-05-16T05:36:03;14.65;;;6.95;;
74957;SDS011;63741;42.624;26.276;2023-05-16T05:38:30;16.95;;;6.78;;
74957;SDS011;63741;42.624;26.276;2023-05-16T05:40:57;35.88;;;7.70;;
74957;SDS011;63741;42.624;26.276;2023-05-16T05:43:24;27.08;;;6.55;;
74957;SDS011;63741;42.624;26.276;2023-05-16T05:45:50;20.55;;;6.18;;
74957;SDS011;63741;42.624;26.276;2023-05-16T05:48:18;15.65;;;5.95;;
74957;SDS011;63741;42.624;26.276;2023-05-16T05:50:45;34.25;;;6.55;;
74957;SDS011;63741;42.624;26.276;2023-05-16T05:53:12;14.02;;;5.68;;
74957;SDS011;63741;42.624;26.276;2023-05-16T05:55:39;15.40;;;5.78;;
74957;SDS011;63741;42.624;26.276;2023-05-16T05:58:07;14.75;;;6.10;;
74957;SDS011;63741;42.624;26.276;2023-05-16T06:00:34;15.75;;;6.10;;
74957;SDS011;63741;42.624;26.276;2023-05-16T06:03:01;15.68;;;5.50;;
74957;SDS011;63741;42.624;26.276;2023-05-16T06:05:28;16.65;;;5.10;;
74957;SDS011;63741;42.624;26.276;2023-05-16T06:07:56;10.60;;;5.00;;
74957;SDS011;63741;42.624;26.276;2023-05-16T06:10:23;34.45;;;6.00;;
74957;SDS011;63741;42.624;26.276;2023-05-16T06:12:50;33.33;;;6.25;;
74957;SDS011;63741;42.624;26.276;2023-05-16T06:15:17;15.70;;;6.05;;
74957;SDS011;63741;42.624;26.276;2023-05-16T06:17:43;17.55;;;5.70;;
74957;SDS011;63741;42.624;26.276;2023-05-16T06:20:10;22.80;;;6.13;;
74957;SDS011;63741;42.624;26.276;2023-05-16T06:22:38;18.45;;;5.80;;
74957;SDS011;63741;42.624;26.276;2023-05-16T06:25:04;14.13;;;5.68;;
74957;SDS011;63741;42.624;26.276;2023-05-16T06:27:32;10.38;;;4.95;;
74957;SDS011;63741;42.624;26.276;2023-05-16T06:29:59;14.95;;;5.00;;
74957;SDS011;63741;42.624;26.276;2023-05-16T06:32:25;7.88;;;4.60;;
74957;SDS011;63741;42.624;26.276;2023-05-16T06:34:52;63.72;;;7.88;;
74957;SDS011;63741;42.624;26.276;2023-05-16T06:37:19;11.60;;;4.15;;
74957;SDS011;63741;42.624;26.276;2023-05-16T06:39:46;8.82;;;4.28;;
74957;SDS011;63741;42.624;26.276;2023-05-16T06:42:13;23.52;;;5.30;;
74957;SDS011;63741;42.624;26.276;2023-05-16T06:44:41;13.18;;;4.00;;
74957;SDS011;63741;42.624;26.276;2023-05-16T06:47:07;12.80;;;4.43;;
74957;SDS011;63741;42.624;26.276;2023-05-16T06:49:34;12.02;;;4.22;;
74957;SDS011;63741;42.624;26.276;2023-05-16T06:52:01;6.68;;;3.83;;
74957;SDS011;63741;42.624;26.276;2023-05-16T06:54:28;12.35;;;4.30;;
74957;SDS011;63741;42.624;26.276;2023-05-16T06:56:57;15.38;;;4.45;;
74957;SDS011;63741;42.624;26.276;2023-05-16T06:59:24;12.23;;;4.72;;
74957;SDS011;63741;42.624;26.276;2023-05-16T07:01:53;7.70;;;4.57;;
74957;SDS011;63741;42.624;26.276;2023-05-16T07:04:20;9.60;;;4.40;;
74957;SDS011;63741;42.624;26.276;2023-05-16T07:06:47;16.38;;;4.68;;
74957;SDS011;63741;42.624;26.276;2023-05-16T07:09:14;13.10;;;4.50;;
74957;SDS011;63741;42.624;26.276;2023-05-16T07:11:41;10.65;;;4.25;;
74957;SDS011;63741;42.624;26.276;2023-05-16T07:14:08;10.93;;;5.43;;
74957;SDS011;63741;42.624;26.276;2023-05-16T07:16:35;29.88;;;5.78;;
74957;SDS011;63741;42.624;26.276;2023-05-16T07:19:02;12.18;;;5.85;;
74957;SDS011;63741;42.624;26.276;2023-05-16T07:21:29;14.25;;;5.35;;
74957;SDS011;63741;42.624;26.276;2023-05-16T07:23:56;13.15;;;5.85;;
74957;SDS011;63741;42.624;26.276;2023-05-16T07:26:23;18.42;;;6.38;;
74957;SDS011;63741;42.624;26.276;2023-05-16T07:28:53;29.33;;;6.18;;
74957;SDS011;63741;42.624;26.276;2023-05-16T07:31:20;36.15;;;6.22;;
74957;SDS011;63741;42.624;26.276;2023-05-16T07:33:47;17.10;;;5.65;;
74957;SDS011;63741;42.624;26.276;2023-05-16T07:36:14;11.75;;;5.13;;
74957;SDS011;63741;42.624;26.276;2023-05-16T07:38:43;10.23;;;5.03;;
74957;SDS011;63741;42.624;26.276;2023-05-16T07:41:10;21.13;;;5.10;;
74957;SDS011;63741;42.624;26.276;2023-05-16T07:43:37;13.35;;;4.47;;
74957;SDS011;63741;42.624;26.276;2023-05-16T07:46:04;10.40;;;4.50;;
74957;SDS011;63741;42.624;26.276;2023-05-16T07:48:31;13.45;;;4.82;;
74957;SDS011;63741;42.624;26.276;2023-05-16T07:50:58;18.70;;;5.38;;
74957;SDS011;63741;42.624;26.276;2023-05-16T07:53:25;8.73;;;4.90;;
74957;SDS011;63741;42.624;26.276;2023-05-16T07:55:52;20.17;;;5.30;;
74957;SDS011;63741;42.624;26.276;2023-05-16T07:58:19;7.93;;;4.60;;
74957;SDS011;63741;42.624;26.276;2023-05-16T08:00:46;35.60;;;4.90;;
74957;SDS011;63741;42.624;26.276;2023-05-16T08:03:13;5.88;;;3.72;;
74957;SDS011;63741;42.624;26.276;2023-05-16T08:05:40;43.45;;;4.93;;
74957;SDS011;63741;42.624;26.276;2023-05-16T08:08:08;45.85;;;5.68;;
74957;SDS011;63741;42.624;26.276;2023-05-16T08:10:35;43.45;;;5.25;;
74957;SDS011;63741;42.624;26.276;2023-05-16T08:13:01;11.45;;;3.50;;
74957;SDS011;63741;42.624;26.276;2023-05-16T08:15:29;10.18;;;3.90;;
74957;SDS011;63741;42.624;26.276;2023-05-16T08:17:56;8.18;;;3.85;;
74957;SDS011;63741;42.624;26.276;2023-05-16T08:20:24;56.90;;;4.88;;
74957;SDS011;63741;42.624;26.276;2023-05-16T08:22:52;10.30;;;3.90;;
74957;SDS011;63741;42.624;26.276;2023-05-16T08:25:19;9.95;;;3.40;;
74957;SDS011;63741;42.624;26.276;2023-05-16T08:27:49;33.28;;;4.78;;
74957;SDS011;63741;42.624;26.276;2023-05-16T08:30:16;10.45;;;3.97;;
74957;SDS011;63741;42.624;26.276;2023-05-16T08:32:43;20.45;;;4.15;;
74957;SDS011;63741;42.624;26.276;2023-05-16T08:35:10;10.40;;;3.22;;
74957;SDS011;63741;42.624;26.276;2023-05-16T08:37:38;29.20;;;4.72;;
74957;SDS011;63741;42.624;26.276;2023-05-16T08:42:36;9.40;;;3.50;;
74957;SDS011;63741;42.624;26.276;2023-05-16T08:45:03;9.02;;;2.88;;
74957;SDS011;63741;42.624;26.276;2023-05-16T08:47:32;16.80;;;3.45;;
74957;SDS011;63741;42.624;26.276;2023-05-16T08:50:00;11.55;;;2.90;;
74957;SDS011;63741;42.624;26.276;2023-05-16T08:52:30;21.67;;;3.60;;
74957;SDS011;63741;42.624;26.276;2023-05-16T08:55:02;26.63;;;3.60;;
74957;SDS011;63741;42.624;26.276;2023-05-16T08:57:37;10.27;;;3.08;;
74957;SDS011;63741;42.624;26.276;2023-05-16T09:00:16;14.82;;;2.92;;
74957;SDS011;63741;42.624;26.276;2023-05-16T09:02:45;17.98;;;3.13;;
74957;SDS011;63741;42.624;26.276;2023-05-16T09:05:13;20.58;;;2.80;;
74957;SDS011;63741;42.624;26.276;2023-05-16T09:07:40;39.58;;;3.70;;
74957;SDS011;63741;42.624;26.276;2023-05-16T09:10:09;23.92;;;3.05;;
74957;SDS011;63741;42.624;26.276;2023-05-16T09:12:37;10.55;;;2.40;;
74957;SDS011;63741;42.624;26.276;2023-05-16T09:15:06;9.35;;;2.28;;
74957;SDS011;63741;42.624;26.276;2023-05-16T09:17:38;7.95;;;2.35;;
74957;SDS011;63741;42.624;26.276;2023-05-16T09:20:19;18.67;;;2.38;;
74957;SDS011;63741;42.624;26.276;2023-05-16T09:22:56;71.65;;;4.43;;
74957;SDS011;63741;42.624;26.276;2023-05-16T09:25:26;17.63;;;2.50;;
74957;SDS011;63741;42.624;26.276;2023-05-16T09:27:57;6.07;;;2.35;;
74957;SDS011;63741;42.624;26.276;2023-05-16T09:30:28;8.50;;;2.47;;
74957;SDS011;63741;42.624;26.276;2023-05-16T09:32:56;18.25;;;2.60;;
74957;SDS011;63741;42.624;26.276;2023-05-16T09:35:29;6.18;;;2.10;;
74957;SDS011;63741;42.624;26.276;2023-05-16T09:38:12;10.23;;;2.53;;
74957;SDS011;63741;42.624;26.276;2023-05-16T09:40:41;9.77;;;2.40;;
74957;SDS011;63741;42.624;26.276;2023-05-16T09:43:13;18.75;;;2.92;;
74957;SDS011;63741;42.624;26.276;2023-05-16T09:45:44;8.02;;;2.20;;
74957;SDS011;63741;42.624;26.276;2023-05-16T09:48:13;15.85;;;2.53;;
74957;SDS011;63741;42.624;26.276;2023-05-16T09:50:45;8.90;;;2.13;;
74957;SDS011;63741;42.624;26.276;2023-05-16T09:53:28;14.32;;;2.38;;
74957;SDS011;63741;42.624;26.276;2023-05-16T09:55:59;15.77;;;2.53;;
74957;SDS011;63741;42.624;26.276;2023-05-16T09:58:30;12.90;;;2.35;;
74957;SDS011;63741;42.624;26.276;2023-05-16T10:01:01;10.40;;;2.40;;
74957;SDS011;63741;42.624;26.276;2023-05-16T10:03:28;14.27;;;2.30;;
74957;SDS011;63741;42.624;26.276;2023-05-16T10:05:58;18.00;;;2.70;;
74957;SDS011;63741;42.624;26.276;2023-05-16T10:08:25;19.90;;;2.53;;
74957;SDS011;63741;42.624;26.276;2023-05-16T10:10:54;11.02;;;1.88;;
74957;SDS011;63741;42.624;26.276;2023-05-16T10:13:28;20.10;;;2.00;;
74957;SDS011;63741;42.624;26.276;2023-05-16T10:15:59;31.30;;;2.97;;
74957;SDS011;63741;42.624;26.276;2023-05-16T10:18:34;26.70;;;2.78;;
74957;SDS011;63741;42.624;26.276;2023-05-16T10:21:06;11.40;;;2.20;;
74957;SDS011;63741;42.624;26.276;2023-05-16T10:23:37;15.55;;;2.20;;
74957;SDS011;63741;42.624;26.276;2023-05-16T10:26:10;10.95;;;2.17;;
74957;SDS011;63741;42.624;26.276;2023-05-16T10:28:39;12.57;;;2.42;;
74957;SDS011;63741;42.624;26.276;2023-05-16T10:31:07;69.47;;;4.78;;
74957;SDS011;63741;42.624;26.276;2023-05-16T10:33:35;12.00;;;2.00;;
74957;SDS011;63741;42.624;26.276;2023-05-16T10:36:08;7.32;;;1.92;;
74957;SDS011;63741;42.624;26.276;2023-05-16T10:38:37;9.32;;;2.30;;
74957;SDS011;63741;42.624;26.276;2023-05-16T10:41:08;8.48;;;2.50;;
74957;SDS011;63741;42.624;26.276;2023-05-16T10:43:56;7.15;;;2.10;;
74957;SDS011;63741;42.624;26.276;2023-05-16T10:46:27;6.88;;;2.03;;
74957;SDS011;63741;42.624;26.276;2023-05-16T10:48:57;21.80;;;2.53;;
74957;SDS011;63741;42.624;26.276;2023-05-16T10:51:36;6.30;;;2.15;;
74957;SDS011;63741;42.624;26.276;2023-05-16T10:54:05;9.77;;;2.20;;
74957;SDS011;63741;42.624;26.276;2023-05-16T10:56:35;11.68;;;2.55;;
74957;SDS011;63741;42.624;26.276;2023-05-16T10:59:02;12.23;;;2.25;;
74957;SDS011;63741;42.624;26.276;2023-05-16T11:01:33;17.50;;;2.55;;
74957;SDS011;63741;42.624;26.276;2023-05-16T11:04:01;12.70;;;3.22;;
74957;SDS011;63741;42.624;26.276;2023-05-16T11:06:31;16.20;;;2.45;;
74957;SDS011;63741;42.624;26.276;2023-05-16T11:11:45;16.88;;;2.70;;
74957;SDS011;63741;42.624;26.276;2023-05-16T11:14:24;8.73;;;2.22;;
74957;SDS011;63741;42.624;26.276;2023-05-16T11:19:41;9.30;;;2.22;;
74957;SDS011;63741;42.624;26.276;2023-05-16T11:25:05;20.10;;;2.50;;
74957;SDS011;63741;42.624;26.276;2023-05-16T11:27:43;17.00;;;2.58;;
74957;SDS011;63741;42.624;26.276;2023-05-16T11:30:14;14.25;;;2.33;;
74957;SDS011;63741;42.624;26.276;2023-05-16T11:32:49;26.05;;;3.42;;
74957;SDS011;63741;42.624;26.276;2023-05-16T11:35:16;6.50;;;2.15;;
74957;SDS011;63741;42.624;26.276;2023-05-16T11:37:44;17.58;;;2.50;;
74957;SDS011;63741;42.624;26.276;2023-05-16T11:40:12;20.45;;;2.88;;
74957;SDS011;63741;42.624;26.276;2023-05-16T11:42:46;14.30;;;2.30;;
74957;SDS011;63741;42.624;26.276;2023-05-16T11:45:14;21.90;;;2.75;;
74957;SDS011;63741;42.624;26.276;2023-05-16T11:47:43;11.65;;;2.47;;
74957;SDS011;63741;42.624;26.276;2023-05-16T11:50:12;14.85;;;2.28;;
74957;SDS011;63741;42.624;26.276;2023-05-16T11:52:44;6.50;;;1.90;;
74957;SDS011;63741;42.624;26.276;2023-05-16T11:55:14;24.58;;;2.50;;
74957;SDS011;63741;42.624;26.276;2023-05-16T11:58:04;9.73;;;2.03;;
74957;SDS011;63741;42.624;26.276;2023-05-16T12:00:32;14.55;;;2.10;;
74957;SDS011;63741;42.624;26.276;2023-05-16T12:03:01;13.32;;;2.08;;
74957;SDS011;63741;42.624;26.276;2023-05-16T12:05:32;9.52;;;2.08;;
74957;SDS011;63741;42.624;26.276;2023-05-16T12:08:00;9.80;;;1.90;;
74957;SDS011;63741;42.624;26.276;2023-05-16T12:10:32;11.93;;;2.20;;
74957;SDS011;63741;42.624;26.276;2023-05-16T12:13:02;16.90;;;2.20;;
74957;SDS011;63741;42.624;26.276;2023-05-16T12:15:29;11.75;;;2.00;;
74957;SDS011;63741;42.624;26.276;2023-05-16T12:17:56;14.30;;;2.22;;
74957;SDS011;63741;42.624;26.276;2023-05-16T12:20:24;21.75;;;2.70;;
74957;SDS011;63741;42.624;26.276;2023-05-16T12:22:56;27.55;;;2.67;;
74957;SDS011;63741;42.624;26.276;2023-05-16T12:25:27;22.08;;;2.30;;
74957;SDS011;63741;42.624;26.276;2023-05-16T12:27:58;24.98;;;3.05;;
74957;SDS011;63741;42.624;26.276;2023-05-16T12:30:28;5.97;;;1.98;;
74957;SDS011;63741;42.624;26.276;2023-05-16T12:32:59;10.55;;;1.80;;
74957;SDS011;63741;42.624;26.276;2023-05-16T12:35:33;18.05;;;2.50;;
74957;SDS011;63741;42.624;26.276;2023-05-16T12:38:04;17.35;;;2.78;;
74957;SDS011;63741;42.624;26.276;2023-05-16T12:40:35;33.08;;;3.10;;
74957;SDS011;63741;42.624;26.276;2023-05-16T12:43:19;7.80;;;1.90;;
74957;SDS011;63741;42.624;26.276;2023-05-16T12:45:53;11.00;;;2.40;;
74957;SDS011;63741;42.624;26.276;2023-05-16T12:48:21;60.20;;;4.25;;
74957;SDS011;63741;42.624;26.276;2023-05-16T12:50:51;21.02;;;2.30;;
74957;SDS011;63741;42.624;26.276;2023-05-16T12:53:21;18.23;;;2.45;;
74957;SDS011;63741;42.624;26.276;2023-05-16T12:55:49;14.95;;;2.55;;
74957;SDS011;63741;42.624;26.276;2023-05-16T12:58:37;17.17;;;2.10;;
74957;SDS011;63741;42.624;26.276;2023-05-16T13:01:10;26.02;;;3.05;;
74957;SDS011;63741;42.624;26.276;2023-05-16T13:03:38;7.20;;;1.92;;
74957;SDS011;63741;42.624;26.276;2023-05-16T13:06:05;20.77;;;2.83;;
74957;SDS011;63741;42.624;26.276;2023-05-16T13:08:35;25.60;;;3.05;;
74957;SDS011;63741;42.624;26.276;2023-05-16T13:11:02;17.20;;;2.47;;
74957;SDS011;63741;42.624;26.276;2023-05-16T13:13:29;29.52;;;2.72;;
74957;SDS011;63741;42.624;26.276;2023-05-16T13:16:04;11.77;;;2.00;;
74957;SDS011;63741;42.624;26.276;2023-05-16T13:18:36;9.80;;;2.00;;
74957;SDS011;63741;42.624;26.276;2023-05-16T13:21:06;14.98;;;2.25;;
74957;SDS011;63741;42.624;26.276;2023-05-16T13:23:33;15.75;;;2.30;;
74957;SDS011;63741;42.624;26.276;2023-05-16T13:26:00;15.90;;;2.50;;
74957;SDS011;63741;42.624;26.276;2023-05-16T13:28:30;10.80;;;2.33;;
74957;SDS011;63741;42.624;26.276;2023-05-16T13:30:58;12.57;;;2.30;;
74957;SDS011;63741;42.624;26.276;2023-05-16T13:33:26;18.48;;;2.38;;
74957;SDS011;63741;42.624;26.276;2023-05-16T13:35:53;18.20;;;2.30;;
74957;SDS011;63741;42.624;26.276;2023-05-16T13:38:20;13.63;;;1.92;;
74957;SDS011;63741;42.624;26.276;2023-05-16T13:40:47;12.82;;;2.20;;
74957;SDS011;63741;42.624;26.276;2023-05-16T13:43:14;9.52;;;2.17;;
74957;SDS011;63741;42.624;26.276;2023-05-16T13:45:41;18.17;;;2.30;;
74957;SDS011;63741;42.624;26.276;2023-05-16T13:48:15;18.23;;;2.60;;
74957;SDS011;63741;42.624;26.276;2023-05-16T13:50:45;32.85;;;3.17;;
74957;SDS011;63741;42.624;26.276;2023-05-16T13:53:12;31.70;;;3.10;;
74957;SDS011;63741;42.624;26.276;2023-05-16T13:55:42;10.27;;;2.20;;
74957;SDS011;63741;42.624;26.276;2023-05-16T13:58:09;16.83;;;2.38;;
74957;SDS011;63741;42.624;26.276;2023-05-16T14:00:36;17.80;;;2.20;;
74957;SDS011;63741;42.624;26.276;2023-05-16T14:03:11;31.70;;;2.47;;
74957;SDS011;63741;42.624;26.276;2023-05-16T14:05:38;16.02;;;2.40;;
74957;SDS011;63741;42.624;26.276;2023-05-16T14:08:05;12.20;;;2.05;;
74957;SDS011;63741;42.624;26.276;2023-05-16T14:10:33;16.90;;;2.38;;
74957;SDS011;63741;42.624;26.276;2023-05-16T14:13:01;44.72;;;3.33;;
74957;SDS011;63741;42.624;26.276;2023-05-16T14:15:32;18.80;;;2.60;;
74957;SDS011;63741;42.624;26.276;2023-05-16T14:17:59;10.48;;;1.92;;
74957;SDS011;63741;42.624;26.276;2023-05-16T14:20:26;10.07;;;2.17;;
74957;SDS011;63741;42.624;26.276;2023-05-16T14:22:59;28.85;;;2.40;;
74957;SDS011;63741;42.624;26.276;2023-05-16T14:25:26;9.93;;;1.90;;
74957;SDS011;63741;42.624;26.276;2023-05-16T14:27:56;33.88;;;2.60;;
74957;SDS011;63741;42.624;26.276;2023-05-16T14:30:32;16.75;;;2.50;;
74957;SDS011;63741;42.624;26.276;2023-05-16T14:33:00;14.02;;;2.10;;
74957;SDS011;63741;42.624;26.276;2023-05-16T14:35:28;83.55;;;4.72;;
74957;SDS011;63741;42.624;26.276;2023-05-16T14:37:56;38.55;;;3.13;;
74957;SDS011;63741;42.624;26.276;2023-05-16T14:40:25;25.42;;;2.70;;
74957;SDS011;63741;42.624;26.276;2023-05-16T14:42:54;18.83;;;1.92;;
74957;SDS011;63741;42.624;26.276;2023-05-16T14:45:21;21.65;;;2.50;;
74957;SDS011;63741;42.624;26.276;2023-05-16T14:47:51;14.48;;;4.07;;
74957;SDS011;63741;42.624;26.276;2023-05-16T14:50:18;18.67;;;4.13;;
74957;SDS011;63741;42.624;26.276;2023-05-16T14:52:47;13.02;;;3.92;;
74957;SDS011;63741;42.624;26.276;2023-05-16T14:55:15;41.90;;;8.50;;
74957;SDS011;63741;42.624;26.276;2023-05-16T14:57:42;30.45;;;3.72;;
74957;SDS011;63741;42.624;26.276;2023-05-16T15:00:11;17.65;;;4.72;;
74957;SDS011;63741;42.624;26.276;2023-05-16T15:02:39;15.95;;;1.92;;